sensor_id;sensor_type;location;lat;lon;timestamp;P1;durP1;ratioP1;P2;durP2;ratioP2
49177;SDS011;35016;55.674;37.468;2024-02-04T00:02:18;8.90;;;3.35;;
49177;SDS011;35016;55.674;37.468;2024-02-04T00:04:51;8.88;;;3.38;;
49177;SDS011;35016;55.674;37.468;2024-02-04T00:07:19;11.27;;;3.80;;
49177;SDS011;35016;55.674;37.468;2024-02-04T00:09:47;10.63;;;4.40;;
49177;SDS011;35016;55.674;37.468;2024-02-04T00:12:14;9.45;;;3.42;;
49177;SDS011;35016;55.674;37.468;2024-02-04T00:14:41;9.10;;;3.38;;
49177;SDS011;35016;55.674;37.468;2024-02-04T00:17:08;10.60;;;4.32;;
49177;SDS011;35016;55.674;37.468;2024-02-04T00:19:35;9.48;;;3.28;;
49177;SDS011;35016;55.674;37.468;2024-02-04T00:22:03;8.70;;;3.55;;
49177;SDS011;35016;55.674;37.468;2024-02-04T00:24:30;10.98;;;4.25;;
49177;SDS011;35016;55.674;37.468;2024-02-04T00:26:57;7.65;;;3.08;;
49177;SDS011;35016;55.674;37.468;2024-02-04T00:29:25;10.55;;;3.95;;
49177;SDS011;35016;55.674;37.468;2024-02-04T00:31:52;11.05;;;3.92;;
49177;SDS011;35016;55.674;37.468;2024-02-04T00:34:19;10.43;;;3.63;;
49177;SDS011;35016;55.674;37.468;2024-02-04T00:36:46;10.20;;;3.60;;
49177;SDS011;35016;55.674;37.468;2024-02-04T00:39:14;8.43;;;3.40;;
49177;SDS011;35016;55.674;37.468;2024-02-04T00:41:41;9.35;;;2.92;;
49177;SDS011;35016;55.674;37.468;2024-02-04T00:44:08;9.93;;;3.55;;
49177;SDS011;35016;55.674;37.468;2024-02-04T00:46:35;10.40;;;4.25;;
49177;SDS011;35016;55.674;37.468;2024-02-04T00:49:02;9.15;;;3.47;;
49177;SDS011;35016;55.674;37.468;2024-02-04T00:51:29;8.93;;;3.22;;
49177;SDS011;35016;55.674;37.468;2024-02-04T00:53:57;7.93;;;3.17;;
49177;SDS011;35016;55.674;37.468;2024-02-04T00:56:24;7.95;;;2.92;;
49177;SDS011;35016;55.674;37.468;2024-02-04T00:58:51;8.38;;;3.08;;
49177;SDS011;35016;55.674;37.468;2024-02-04T01:01:19;8.30;;;3.10;;
49177;SDS011;35016;55.674;37.468;2024-02-04T01:03:46;8.60;;;2.97;;
49177;SDS011;35016;55.674;37.468;2024-02-04T01:06:14;8.23;;;3.22;;
49177;SDS011;35016;55.674;37.468;2024-02-04T01:08:41;8.63;;;3.08;;
49177;SDS011;35016;55.674;37.468;2024-02-04T01:11:08;9.18;;;3.05;;
49177;SDS011;35016;55.674;37.468;2024-02-04T01:13:36;7.40;;;2.42;;
49177;SDS011;35016;55.674;37.468;2024-02-04T01:16:03;9.43;;;3.45;;
49177;SDS011;35016;55.674;37.468;2024-02-04T01:18:30;8.23;;;3.15;;
49177;SDS011;35016;55.674;37.468;2024-02-04T01:20:59;11.18;;;3.28;;
49177;SDS011;35016;55.674;37.468;2024-02-04T01:23:27;7.15;;;2.40;;
49177;SDS011;35016;55.674;37.468;2024-02-04T01:25:54;9.32;;;3.13;;
49177;SDS011;35016;55.674;37.468;2024-02-04T01:28:21;5.05;;;1.92;;
49177;SDS011;35016;55.674;37.468;2024-02-04T01:30:48;7.22;;;2.08;;
49177;SDS011;35016;55.674;37.468;2024-02-04T01:33:16;7.50;;;2.75;;
49177;SDS011;35016;55.674;37.468;2024-02-04T01:35:43;6.78;;;1.98;;
49177;SDS011;35016;55.674;37.468;2024-02-04T01:38:11;6.82;;;2.55;;
49177;SDS011;35016;55.674;37.468;2024-02-04T01:40:38;8.00;;;2.85;;
49177;SDS011;35016;55.674;37.468;2024-02-04T01:43:05;8.50;;;2.67;;
49177;SDS011;35016;55.674;37.468;2024-02-04T01:45:32;7.70;;;3.10;;
49177;SDS011;35016;55.674;37.468;2024-02-04T01:48:00;6.45;;;1.80;;
49177;SDS011;35016;55.674;37.468;2024-02-04T01:50:27;6.25;;;2.40;;
49177;SDS011;35016;55.674;37.468;2024-02-04T01:52:54;7.63;;;2.35;;
49177;SDS011;35016;55.674;37.468;2024-02-04T01:55:22;8.60;;;2.70;;
49177;SDS011;35016;55.674;37.468;2024-02-04T01:57:49;6.07;;;2.05;;
49177;SDS011;35016;55.674;37.468;2024-02-04T02:00:17;6.20;;;2.10;;
49177;SDS011;35016;55.674;37.468;2024-02-04T02:02:47;5.78;;;2.05;;
49177;SDS011;35016;55.674;37.468;2024-02-04T02:05:16;6.22;;;1.98;;
49177;SDS011;35016;55.674;37.468;2024-02-04T02:07:43;6.10;;;2.05;;
49177;SDS011;35016;55.674;37.468;2024-02-04T02:10:12;5.82;;;2.00;;
49177;SDS011;35016;55.674;37.468;2024-02-04T02:12:43;10.13;;;2.70;;
49177;SDS011;35016;55.674;37.468;2024-02-04T02:15:30;5.75;;;1.88;;
49177;SDS011;35016;55.674;37.468;2024-02-04T02:26:59;5.47;;;1.50;;
49177;SDS011;35016;55.674;37.468;2024-02-04T02:29:27;6.80;;;2.05;;
49177;SDS011;35016;55.674;37.468;2024-02-04T02:31:55;5.75;;;1.65;;
49177;SDS011;35016;55.674;37.468;2024-02-04T02:34:22;5.18;;;1.63;;
49177;SDS011;35016;55.674;37.468;2024-02-04T02:37:07;5.78;;;1.80;;
49177;SDS011;35016;55.674;37.468;2024-02-04T02:39:45;5.40;;;1.83;;
49177;SDS011;35016;55.674;37.468;2024-02-04T02:42:18;4.75;;;1.50;;
49177;SDS011;35016;55.674;37.468;2024-02-04T02:44:49;4.88;;;1.70;;
49177;SDS011;35016;55.674;37.468;2024-02-04T02:47:17;3.58;;;1.13;;
49177;SDS011;35016;55.674;37.468;2024-02-04T02:49:45;4.22;;;1.05;;
49177;SDS011;35016;55.674;37.468;2024-02-04T02:52:12;3.60;;;0.90;;
49177;SDS011;35016;55.674;37.468;2024-02-04T02:54:39;5.07;;;1.52;;
49177;SDS011;35016;55.674;37.468;2024-02-04T02:57:07;5.18;;;1.25;;
49177;SDS011;35016;55.674;37.468;2024-02-04T02:59:34;4.97;;;1.40;;
49177;SDS011;35016;55.674;37.468;2024-02-04T03:02:01;6.70;;;1.48;;
49177;SDS011;35016;55.674;37.468;2024-02-04T03:04:28;4.25;;;1.10;;
49177;SDS011;35016;55.674;37.468;2024-02-04T03:06:55;2.13;;;0.90;;
49177;SDS011;35016;55.674;37.468;2024-02-04T03:09:23;5.32;;;1.20;;
49177;SDS011;35016;55.674;37.468;2024-02-04T03:11:50;4.40;;;1.42;;
49177;SDS011;35016;55.674;37.468;2024-02-04T03:14:18;3.47;;;1.05;;
49177;SDS011;35016;55.674;37.468;2024-02-04T03:16:47;3.70;;;0.98;;
49177;SDS011;35016;55.674;37.468;2024-02-04T03:19:14;2.45;;;0.75;;
49177;SDS011;35016;55.674;37.468;2024-02-04T03:21:41;3.20;;;0.95;;
49177;SDS011;35016;55.674;37.468;2024-02-04T03:24:09;4.18;;;1.17;;
49177;SDS011;35016;55.674;37.468;2024-02-04T03:26:36;2.13;;;0.77;;
49177;SDS011;35016;55.674;37.468;2024-02-04T03:29:03;2.00;;;0.75;;
49177;SDS011;35016;55.674;37.468;2024-02-04T03:31:33;3.80;;;1.10;;
49177;SDS011;35016;55.674;37.468;2024-02-04T03:34:01;4.13;;;1.15;;
49177;SDS011;35016;55.674;37.468;2024-02-04T03:36:30;3.97;;;1.10;;
49177;SDS011;35016;55.674;37.468;2024-02-04T03:38:58;2.47;;;0.75;;
49177;SDS011;35016;55.674;37.468;2024-02-04T03:41:25;3.30;;;0.90;;
49177;SDS011;35016;55.674;37.468;2024-02-04T03:43:53;1.90;;;0.80;;
49177;SDS011;35016;55.674;37.468;2024-02-04T03:46:22;2.70;;;0.73;;
49177;SDS011;35016;55.674;37.468;2024-02-04T03:48:49;3.13;;;0.88;;
49177;SDS011;35016;55.674;37.468;2024-02-04T03:51:17;2.38;;;0.82;;
49177;SDS011;35016;55.674;37.468;2024-02-04T03:53:47;2.13;;;0.60;;
49177;SDS011;35016;55.674;37.468;2024-02-04T03:56:14;3.45;;;0.70;;
49177;SDS011;35016;55.674;37.468;2024-02-04T03:58:42;0.40;;;0.40;;
49177;SDS011;35016;55.674;37.468;2024-02-04T04:01:09;1.95;;;0.55;;
49177;SDS011;35016;55.674;37.468;2024-02-04T04:03:40;2.20;;;0.80;;
49177;SDS011;35016;55.674;37.468;2024-02-04T04:06:11;0.85;;;0.40;;
49177;SDS011;35016;55.674;37.468;2024-02-04T04:08:38;2.97;;;0.82;;
49177;SDS011;35016;55.674;37.468;2024-02-04T04:11:07;2.03;;;0.60;;
49177;SDS011;35016;55.674;37.468;2024-02-04T04:13:36;2.00;;;0.70;;
49177;SDS011;35016;55.674;37.468;2024-02-04T04:16:04;3.38;;;0.80;;
49177;SDS011;35016;55.674;37.468;2024-02-04T04:18:32;1.08;;;0.43;;
49177;SDS011;35016;55.674;37.468;2024-02-04T04:20:59;2.00;;;0.68;;
49177;SDS011;35016;55.674;37.468;2024-02-04T04:23:27;4.05;;;0.68;;
49177;SDS011;35016;55.674;37.468;2024-02-04T04:25:54;2.65;;;0.80;;
49177;SDS011;35016;55.674;37.468;2024-02-04T04:28:21;1.60;;;0.70;;
49177;SDS011;35016;55.674;37.468;2024-02-04T04:30:48;3.13;;;0.88;;
49177;SDS011;35016;55.674;37.468;2024-02-04T04:33:15;1.30;;;0.40;;
49177;SDS011;35016;55.674;37.468;2024-02-04T04:35:42;1.10;;;0.45;;
49177;SDS011;35016;55.674;37.468;2024-02-04T04:38:09;2.60;;;0.85;;
49177;SDS011;35016;55.674;37.468;2024-02-04T04:40:37;2.38;;;0.82;;
49177;SDS011;35016;55.674;37.468;2024-02-04T04:43:04;3.13;;;1.00;;
49177;SDS011;35016;55.674;37.468;2024-02-04T04:45:31;2.45;;;0.82;;
49177;SDS011;35016;55.674;37.468;2024-02-04T04:47:58;2.55;;;0.73;;
49177;SDS011;35016;55.674;37.468;2024-02-04T04:50:26;2.20;;;0.55;;
49177;SDS011;35016;55.674;37.468;2024-02-04T04:52:53;2.28;;;0.63;;
49177;SDS011;35016;55.674;37.468;2024-02-04T04:55:21;3.25;;;0.75;;
49177;SDS011;35016;55.674;37.468;2024-02-04T04:57:48;1.95;;;0.60;;
49177;SDS011;35016;55.674;37.468;2024-02-04T05:00:15;1.85;;;0.70;;
49177;SDS011;35016;55.674;37.468;2024-02-04T05:02:43;2.22;;;0.70;;
49177;SDS011;35016;55.674;37.468;2024-02-04T05:05:11;0.77;;;0.40;;
49177;SDS011;35016;55.674;37.468;2024-02-04T05:07:39;2.83;;;0.70;;
49177;SDS011;35016;55.674;37.468;2024-02-04T05:10:07;3.17;;;0.88;;
49177;SDS011;35016;55.674;37.468;2024-02-04T05:12:35;2.67;;;0.65;;
49177;SDS011;35016;55.674;37.468;2024-02-04T05:15:04;1.65;;;0.57;;
49177;SDS011;35016;55.674;37.468;2024-02-04T05:17:32;2.78;;;0.90;;
49177;SDS011;35016;55.674;37.468;2024-02-04T05:20:01;2.58;;;0.80;;
49177;SDS011;35016;55.674;37.468;2024-02-04T05:22:30;2.17;;;0.77;;
49177;SDS011;35016;55.674;37.468;2024-02-04T05:24:57;2.28;;;0.68;;
49177;SDS011;35016;55.674;37.468;2024-02-04T05:27:25;0.73;;;0.45;;
49177;SDS011;35016;55.674;37.468;2024-02-04T05:29:53;1.60;;;0.60;;
49177;SDS011;35016;55.674;37.468;2024-02-04T05:32:21;1.20;;;0.63;;
49177;SDS011;35016;55.674;37.468;2024-02-04T05:34:48;1.30;;;0.60;;
49177;SDS011;35016;55.674;37.468;2024-02-04T05:37:15;1.80;;;0.70;;
49177;SDS011;35016;55.674;37.468;2024-02-04T05:39:43;2.55;;;0.88;;
49177;SDS011;35016;55.674;37.468;2024-02-04T05:42:10;2.28;;;0.70;;
49177;SDS011;35016;55.674;37.468;2024-02-04T05:44:37;0.77;;;0.45;;
49177;SDS011;35016;55.674;37.468;2024-02-04T05:47:04;1.85;;;0.68;;
49177;SDS011;35016;55.674;37.468;2024-02-04T05:49:31;2.10;;;0.73;;
49177;SDS011;35016;55.674;37.468;2024-02-04T05:51:58;1.48;;;0.60;;
49177;SDS011;35016;55.674;37.468;2024-02-04T05:54:25;3.08;;;0.68;;
49177;SDS011;35016;55.674;37.468;2024-02-04T05:56:53;2.72;;;0.80;;
49177;SDS011;35016;55.674;37.468;2024-02-04T05:59:20;1.92;;;0.60;;
49177;SDS011;35016;55.674;37.468;2024-02-04T06:01:47;2.28;;;0.77;;
49177;SDS011;35016;55.674;37.468;2024-02-04T06:04:14;1.13;;;0.47;;
49177;SDS011;35016;55.674;37.468;2024-02-04T06:06:42;2.38;;;0.70;;
49177;SDS011;35016;55.674;37.468;2024-02-04T06:09:09;1.80;;;0.60;;
49177;SDS011;35016;55.674;37.468;2024-02-04T06:11:37;1.38;;;0.60;;
49177;SDS011;35016;55.674;37.468;2024-02-04T06:14:04;1.00;;;0.43;;
49177;SDS011;35016;55.674;37.468;2024-02-04T06:16:31;0.30;;;0.30;;
49177;SDS011;35016;55.674;37.468;2024-02-04T06:19:01;1.15;;;0.40;;
49177;SDS011;35016;55.674;37.468;2024-02-04T06:21:28;0.55;;;0.32;;
49177;SDS011;35016;55.674;37.468;2024-02-04T06:23:57;0.52;;;0.40;;
49177;SDS011;35016;55.674;37.468;2024-02-04T06:26:24;1.20;;;0.50;;
49177;SDS011;35016;55.674;37.468;2024-02-04T06:28:52;0.20;;;0.20;;
49177;SDS011;35016;55.674;37.468;2024-02-04T06:31:19;0.95;;;0.50;;
49177;SDS011;35016;55.674;37.468;2024-02-04T06:33:46;3.50;;;0.60;;
49177;SDS011;35016;55.674;37.468;2024-02-04T06:36:13;0.43;;;0.20;;
49177;SDS011;35016;55.674;37.468;2024-02-04T06:38:41;0.85;;;0.32;;
49177;SDS011;35016;55.674;37.468;2024-02-04T06:41:08;0.52;;;0.30;;
49177;SDS011;35016;55.674;37.468;2024-02-04T06:43:36;0.75;;;0.30;;
49177;SDS011;35016;55.674;37.468;2024-02-04T06:46:04;0.63;;;0.30;;
49177;SDS011;35016;55.674;37.468;2024-02-04T06:48:31;0.88;;;0.30;;
49177;SDS011;35016;55.674;37.468;2024-02-04T06:50:59;0.85;;;0.30;;
49177;SDS011;35016;55.674;37.468;2024-02-04T06:53:26;0.60;;;0.32;;
49177;SDS011;35016;55.674;37.468;2024-02-04T06:55:53;0.55;;;0.38;;
49177;SDS011;35016;55.674;37.468;2024-02-04T06:58:20;0.20;;;0.20;;
49177;SDS011;35016;55.674;37.468;2024-02-04T07:00:48;1.92;;;0.47;;
49177;SDS011;35016;55.674;37.468;2024-02-04T07:03:15;0.30;;;0.30;;
49177;SDS011;35016;55.674;37.468;2024-02-04T07:05:42;0.45;;;0.30;;
49177;SDS011;35016;55.674;37.468;2024-02-04T07:08:14;1.70;;;0.40;;
49177;SDS011;35016;55.674;37.468;2024-02-04T07:10:41;0.30;;;0.30;;
49177;SDS011;35016;55.674;37.468;2024-02-04T07:13:08;0.30;;;0.30;;
49177;SDS011;35016;55.674;37.468;2024-02-04T07:15:38;0.75;;;0.30;;
49177;SDS011;35016;55.674;37.468;2024-02-04T07:18:06;0.30;;;0.30;;
49177;SDS011;35016;55.674;37.468;2024-02-04T07:20:33;1.02;;;0.40;;
49177;SDS011;35016;55.674;37.468;2024-02-04T07:23:01;0.20;;;0.20;;
49177;SDS011;35016;55.674;37.468;2024-02-04T07:25:31;0.20;;;0.20;;
49177;SDS011;35016;55.674;37.468;2024-02-04T07:27:59;0.75;;;0.30;;
49177;SDS011;35016;55.674;37.468;2024-02-04T07:30:27;0.20;;;0.20;;
49177;SDS011;35016;55.674;37.468;2024-02-04T07:32:54;1.05;;;0.38;;
49177;SDS011;35016;55.674;37.468;2024-02-04T07:35:21;1.38;;;0.40;;
49177;SDS011;35016;55.674;37.468;2024-02-04T07:37:48;1.38;;;0.40;;
49177;SDS011;35016;55.674;37.468;2024-02-04T07:40:15;1.27;;;0.55;;
49177;SDS011;35016;55.674;37.468;2024-02-04T07:42:44;0.77;;;0.40;;
49177;SDS011;35016;55.674;37.468;2024-02-04T07:45:11;1.33;;;0.40;;
49177;SDS011;35016;55.674;37.468;2024-02-04T07:47:38;0.30;;;0.30;;
49177;SDS011;35016;55.674;37.468;2024-02-04T07:50:06;1.27;;;0.50;;
49177;SDS011;35016;55.674;37.468;2024-02-04T07:52:34;0.88;;;0.30;;
49177;SDS011;35016;55.674;37.468;2024-02-04T07:55:02;0.32;;;0.30;;
49177;SDS011;35016;55.674;37.468;2024-02-04T07:57:29;1.25;;;0.35;;
49177;SDS011;35016;55.674;37.468;2024-02-04T07:59:57;2.40;;;0.60;;
49177;SDS011;35016;55.674;37.468;2024-02-04T08:11:31;2.50;;;0.80;;
49177;SDS011;35016;55.674;37.468;2024-02-04T08:21:21;1.05;;;0.38;;
49177;SDS011;35016;55.674;37.468;2024-02-04T08:30:58;2.17;;;0.80;;
49177;SDS011;35016;55.674;37.468;2024-02-04T08:33:28;1.45;;;0.77;;
49177;SDS011;35016;55.674;37.468;2024-02-04T08:40:40;3.85;;;0.88;;
49177;SDS011;35016;55.674;37.468;2024-02-04T08:43:09;5.32;;;1.05;;
49177;SDS011;35016;55.674;37.468;2024-02-04T08:45:37;4.45;;;1.08;;
49177;SDS011;35016;55.674;37.468;2024-02-04T09:18:30;3.42;;;1.05;;
49177;SDS011;35016;55.674;37.468;2024-02-04T09:21:10;5.95;;;1.45;;
49177;SDS011;35016;55.674;37.468;2024-02-04T09:47:26;4.57;;;1.40;;
49177;SDS011;35016;55.674;37.468;2024-02-04T09:50:12;5.00;;;1.02;;
49177;SDS011;35016;55.674;37.468;2024-02-04T09:59:46;3.75;;;1.00;;
49177;SDS011;35016;55.674;37.468;2024-02-04T10:02:21;4.95;;;1.50;;
49177;SDS011;35016;55.674;37.468;2024-02-04T10:05:04;3.88;;;1.17;;
49177;SDS011;35016;55.674;37.468;2024-02-04T10:10:53;4.05;;;1.25;;
49177;SDS011;35016;55.674;37.468;2024-02-04T10:13:21;4.57;;;1.45;;
49177;SDS011;35016;55.674;37.468;2024-02-04T10:16:12;4.05;;;1.13;;
49177;SDS011;35016;55.674;37.468;2024-02-04T10:18:44;5.88;;;1.88;;
49177;SDS011;35016;55.674;37.468;2024-02-04T10:21:19;4.25;;;1.10;;
49177;SDS011;35016;55.674;37.468;2024-02-04T10:24:06;8.98;;;1.50;;
49177;SDS011;35016;55.674;37.468;2024-02-04T10:27:50;4.38;;;1.55;;
49177;SDS011;35016;55.674;37.468;2024-02-04T10:30:48;3.00;;;0.95;;
49177;SDS011;35016;55.674;37.468;2024-02-04T10:33:20;5.13;;;1.40;;
49177;SDS011;35016;55.674;37.468;2024-02-04T10:35:56;8.02;;;1.58;;
49177;SDS011;35016;55.674;37.468;2024-02-04T10:39:15;6.03;;;1.60;;
49177;SDS011;35016;55.674;37.468;2024-02-04T10:42:05;3.72;;;1.17;;
49177;SDS011;35016;55.674;37.468;2024-02-04T10:53:34;3.13;;;1.27;;
49177;SDS011;35016;55.674;37.468;2024-02-04T11:00:46;4.20;;;1.13;;
49177;SDS011;35016;55.674;37.468;2024-02-04T11:03:14;3.90;;;0.93;;
49177;SDS011;35016;55.674;37.468;2024-02-04T11:23:41;2.92;;;0.90;;
49177;SDS011;35016;55.674;37.468;2024-02-04T11:40:18;2.83;;;1.05;;
49177;SDS011;35016;55.674;37.468;2024-02-04T11:42:51;2.38;;;0.65;;
49177;SDS011;35016;55.674;37.468;2024-02-04T11:45:42;3.85;;;0.73;;
49177;SDS011;35016;55.674;37.468;2024-02-04T11:48:15;2.30;;;0.75;;
49177;SDS011;35016;55.674;37.468;2024-02-04T11:54:17;2.05;;;0.70;;
49177;SDS011;35016;55.674;37.468;2024-02-04T11:56:58;2.28;;;0.80;;
49177;SDS011;35016;55.674;37.468;2024-02-04T12:06:35;2.15;;;0.60;;
49177;SDS011;35016;55.674;37.468;2024-02-04T12:09:11;1.00;;;0.50;;
49177;SDS011;35016;55.674;37.468;2024-02-04T12:11:42;1.33;;;0.40;;
49177;SDS011;35016;55.674;37.468;2024-02-04T12:15:04;1.73;;;0.63;;
49177;SDS011;35016;55.674;37.468;2024-02-04T12:17:32;1.23;;;0.43;;
49177;SDS011;35016;55.674;37.468;2024-02-04T12:20:02;1.50;;;0.40;;
49177;SDS011;35016;55.674;37.468;2024-02-04T12:23:37;1.88;;;0.80;;
49177;SDS011;35016;55.674;37.468;2024-02-04T12:29:25;2.05;;;0.60;;
49177;SDS011;35016;55.674;37.468;2024-02-04T12:32:16;3.25;;;0.70;;
49177;SDS011;35016;55.674;37.468;2024-02-04T12:34:51;3.85;;;0.63;;
49177;SDS011;35016;55.674;37.468;2024-02-04T12:37:21;1.63;;;0.57;;
49177;SDS011;35016;55.674;37.468;2024-02-04T12:56:44;1.30;;;0.60;;
49177;SDS011;35016;55.674;37.468;2024-02-04T12:59:37;1.85;;;0.57;;
49177;SDS011;35016;55.674;37.468;2024-02-04T13:03:50;4.53;;;1.00;;
49177;SDS011;35016;55.674;37.468;2024-02-04T13:06:10;1.55;;;0.60;;
49177;SDS011;35016;55.674;37.468;2024-02-04T13:08:41;2.38;;;0.73;;
49177;SDS011;35016;55.674;37.468;2024-02-04T13:11:11;2.60;;;0.98;;
49177;SDS011;35016;55.674;37.468;2024-02-04T13:13:50;3.05;;;0.93;;
49177;SDS011;35016;55.674;37.468;2024-02-04T13:16:18;2.30;;;0.93;;
49177;SDS011;35016;55.674;37.468;2024-02-04T13:18:52;3.60;;;1.10;;
49177;SDS011;35016;55.674;37.468;2024-02-04T13:21:20;1.55;;;0.57;;
49177;SDS011;35016;55.674;37.468;2024-02-04T13:23:49;4.35;;;1.15;;
49177;SDS011;35016;55.674;37.468;2024-02-04T13:26:17;3.97;;;1.05;;
49177;SDS011;35016;55.674;37.468;2024-02-04T13:28:45;3.17;;;1.05;;
49177;SDS011;35016;55.674;37.468;2024-02-04T13:31:12;3.05;;;0.80;;
49177;SDS011;35016;55.674;37.468;2024-02-04T13:33:40;1.95;;;0.70;;
49177;SDS011;35016;55.674;37.468;2024-02-04T13:36:08;3.33;;;0.82;;
49177;SDS011;35016;55.674;37.468;2024-02-04T13:38:36;3.05;;;1.05;;
49177;SDS011;35016;55.674;37.468;2024-02-04T13:41:03;2.75;;;0.95;;
49177;SDS011;35016;55.674;37.468;2024-02-04T13:43:31;2.47;;;0.95;;
49177;SDS011;35016;55.674;37.468;2024-02-04T13:45:59;3.92;;;1.10;;
49177;SDS011;35016;55.674;37.468;2024-02-04T13:48:28;2.35;;;0.77;;
49177;SDS011;35016;55.674;37.468;2024-02-04T13:50:56;2.20;;;0.80;;
49177;SDS011;35016;55.674;37.468;2024-02-04T13:53:23;1.80;;;0.65;;
49177;SDS011;35016;55.674;37.468;2024-02-04T13:55:50;2.33;;;0.65;;
49177;SDS011;35016;55.674;37.468;2024-02-04T13:58:17;2.97;;;0.80;;
49177;SDS011;35016;55.674;37.468;2024-02-04T14:00:46;1.02;;;0.50;;
49177;SDS011;35016;55.674;37.468;2024-02-04T14:03:13;1.98;;;0.70;;
49177;SDS011;35016;55.674;37.468;2024-02-04T14:05:41;3.13;;;0.85;;
49177;SDS011;35016;55.674;37.468;2024-02-04T14:08:09;2.40;;;0.73;;
49177;SDS011;35016;55.674;37.468;2024-02-04T14:10:36;4.78;;;1.00;;
49177;SDS011;35016;55.674;37.468;2024-02-04T14:13:03;1.77;;;0.50;;
49177;SDS011;35016;55.674;37.468;2024-02-04T14:15:36;0.70;;;0.47;;
49177;SDS011;35016;55.674;37.468;2024-02-04T14:18:04;2.60;;;0.88;;
49177;SDS011;35016;55.674;37.468;2024-02-04T14:20:32;4.03;;;0.95;;
49177;SDS011;35016;55.674;37.468;2024-02-04T14:22:59;3.20;;;0.70;;
49177;SDS011;35016;55.674;37.468;2024-02-04T14:25:26;4.55;;;1.00;;
49177;SDS011;35016;55.674;37.468;2024-02-04T14:27:56;2.95;;;1.00;;
49177;SDS011;35016;55.674;37.468;2024-02-04T14:30:23;2.58;;;0.73;;
49177;SDS011;35016;55.674;37.468;2024-02-04T14:32:51;4.32;;;1.17;;
49177;SDS011;35016;55.674;37.468;2024-02-04T14:35:18;3.42;;;1.20;;
49177;SDS011;35016;55.674;37.468;2024-02-04T14:37:46;2.55;;;0.70;;
49177;SDS011;35016;55.674;37.468;2024-02-04T14:40:13;4.90;;;1.40;;
49177;SDS011;35016;55.674;37.468;2024-02-04T14:42:40;2.92;;;0.85;;
49177;SDS011;35016;55.674;37.468;2024-02-04T14:45:09;3.00;;;1.00;;
49177;SDS011;35016;55.674;37.468;2024-02-04T14:47:38;2.70;;;1.02;;
49177;SDS011;35016;55.674;37.468;2024-02-04T14:50:05;3.28;;;1.02;;
49177;SDS011;35016;55.674;37.468;2024-02-04T14:52:33;4.13;;;0.95;;
49177;SDS011;35016;55.674;37.468;2024-02-04T14:55:01;3.67;;;1.10;;
49177;SDS011;35016;55.674;37.468;2024-02-04T14:57:29;4.38;;;1.23;;
49177;SDS011;35016;55.674;37.468;2024-02-04T14:59:57;4.07;;;1.13;;
49177;SDS011;35016;55.674;37.468;2024-02-04T15:02:24;3.92;;;1.10;;
49177;SDS011;35016;55.674;37.468;2024-02-04T15:04:52;3.22;;;1.10;;
49177;SDS011;35016;55.674;37.468;2024-02-04T15:07:20;4.20;;;1.38;;
49177;SDS011;35016;55.674;37.468;2024-02-04T15:09:47;5.25;;;1.40;;
49177;SDS011;35016;55.674;37.468;2024-02-04T15:12:17;6.82;;;1.65;;
49177;SDS011;35016;55.674;37.468;2024-02-04T15:14:45;4.30;;;1.25;;
49177;SDS011;35016;55.674;37.468;2024-02-04T15:17:12;3.60;;;1.23;;
49177;SDS011;35016;55.674;37.468;2024-02-04T15:19:40;4.63;;;1.42;;
49177;SDS011;35016;55.674;37.468;2024-02-04T15:22:07;3.95;;;1.08;;
49177;SDS011;35016;55.674;37.468;2024-02-04T15:24:35;3.97;;;1.10;;
49177;SDS011;35016;55.674;37.468;2024-02-04T15:27:03;5.05;;;1.20;;
49177;SDS011;35016;55.674;37.468;2024-02-04T15:29:33;5.10;;;1.35;;
49177;SDS011;35016;55.674;37.468;2024-02-04T15:32:05;5.63;;;1.35;;
49177;SDS011;35016;55.674;37.468;2024-02-04T15:34:36;5.10;;;1.52;;
49177;SDS011;35016;55.674;37.468;2024-02-04T15:37:04;6.88;;;2.05;;
49177;SDS011;35016;55.674;37.468;2024-02-04T15:39:33;5.10;;;1.65;;
49177;SDS011;35016;55.674;37.468;2024-02-04T15:42:00;4.18;;;1.40;;
49177;SDS011;35016;55.674;37.468;2024-02-04T15:44:28;5.63;;;1.30;;
49177;SDS011;35016;55.674;37.468;2024-02-04T15:46:56;5.85;;;1.73;;
49177;SDS011;35016;55.674;37.468;2024-02-04T15:49:26;5.32;;;1.27;;
49177;SDS011;35016;55.674;37.468;2024-02-04T15:51:54;4.47;;;1.58;;
49177;SDS011;35016;55.674;37.468;2024-02-04T15:54:22;4.35;;;1.52;;
49177;SDS011;35016;55.674;37.468;2024-02-04T15:56:55;3.92;;;1.23;;
49177;SDS011;35016;55.674;37.468;2024-02-04T15:59:44;5.72;;;1.70;;
49177;SDS011;35016;55.674;37.468;2024-02-04T16:05:19;3.83;;;1.35;;
49177;SDS011;35016;55.674;37.468;2024-02-04T16:20:33;4.32;;;1.15;;
49177;SDS011;35016;55.674;37.468;2024-02-04T16:29:43;3.22;;;1.13;;
49177;SDS011;35016;55.674;37.468;2024-02-04T16:45:58;4.82;;;1.48;;
49177;SDS011;35016;55.674;37.468;2024-02-04T17:07:18;4.50;;;1.63;;
49177;SDS011;35016;55.674;37.468;2024-02-04T17:09:54;4.22;;;1.42;;
49177;SDS011;35016;55.674;37.468;2024-02-04T17:13:32;5.05;;;1.30;;
49177;SDS011;35016;55.674;37.468;2024-02-04T17:20:57;4.18;;;1.40;;
49177;SDS011;35016;55.674;37.468;2024-02-04T17:28:01;4.32;;;1.40;;
49177;SDS011;35016;55.674;37.468;2024-02-04T17:31:52;5.15;;;1.48;;
49177;SDS011;35016;55.674;37.468;2024-02-04T17:35:13;6.22;;;1.50;;
49177;SDS011;35016;55.674;37.468;2024-02-04T17:53:16;4.93;;;1.50;;
49177;SDS011;35016;55.674;37.468;2024-02-04T17:55:53;3.17;;;0.88;;
49177;SDS011;35016;55.674;37.468;2024-02-04T17:58:57;5.00;;;1.40;;
49177;SDS011;35016;55.674;37.468;2024-02-04T18:12:34;2.10;;;0.85;;
49177;SDS011;35016;55.674;37.468;2024-02-04T18:15:17;4.07;;;1.23;;
49177;SDS011;35016;55.674;37.468;2024-02-04T18:17:44;3.22;;;1.20;;
49177;SDS011;35016;55.674;37.468;2024-02-04T18:20:14;3.00;;;1.15;;
49177;SDS011;35016;55.674;37.468;2024-02-04T18:22:42;4.82;;;1.30;;
49177;SDS011;35016;55.674;37.468;2024-02-04T18:25:09;6.28;;;1.42;;
49177;SDS011;35016;55.674;37.468;2024-02-04T18:27:49;4.05;;;1.00;;
49177;SDS011;35016;55.674;37.468;2024-02-04T18:30:23;5.53;;;1.38;;
49177;SDS011;35016;55.674;37.468;2024-02-04T18:32:51;3.83;;;0.98;;
49177;SDS011;35016;55.674;37.468;2024-02-04T18:35:18;3.63;;;1.30;;
49177;SDS011;35016;55.674;37.468;2024-02-04T18:37:46;2.97;;;1.00;;
49177;SDS011;35016;55.674;37.468;2024-02-04T18:40:14;3.55;;;1.00;;
49177;SDS011;35016;55.674;37.468;2024-02-04T18:42:50;2.83;;;1.10;;
49177;SDS011;35016;55.674;37.468;2024-02-04T18:45:17;3.17;;;1.00;;
49177;SDS011;35016;55.674;37.468;2024-02-04T18:47:44;2.45;;;1.00;;
49177;SDS011;35016;55.674;37.468;2024-02-04T18:50:12;4.32;;;1.13;;
49177;SDS011;35016;55.674;37.468;2024-02-04T18:52:41;4.63;;;1.15;;
49177;SDS011;35016;55.674;37.468;2024-02-04T18:55:08;5.15;;;1.65;;
49177;SDS011;35016;55.674;37.468;2024-02-04T18:57:36;2.72;;;1.10;;
49177;SDS011;35016;55.674;37.468;2024-02-04T19:00:04;3.30;;;1.15;;
49177;SDS011;35016;55.674;37.468;2024-02-04T19:02:32;3.65;;;1.42;;
49177;SDS011;35016;55.674;37.468;2024-02-04T19:04:59;3.50;;;1.25;;
49177;SDS011;35016;55.674;37.468;2024-02-04T19:07:27;5.55;;;1.63;;
49177;SDS011;35016;55.674;37.468;2024-02-04T19:09:54;3.85;;;1.10;;
49177;SDS011;35016;55.674;37.468;2024-02-04T19:12:21;2.28;;;0.90;;
49177;SDS011;35016;55.674;37.468;2024-02-04T19:14:50;2.42;;;1.00;;
49177;SDS011;35016;55.674;37.468;2024-02-04T19:17:20;3.60;;;1.20;;
49177;SDS011;35016;55.674;37.468;2024-02-04T19:19:47;3.90;;;1.23;;
49177;SDS011;35016;55.674;37.468;2024-02-04T19:22:15;3.88;;;0.95;;
49177;SDS011;35016;55.674;37.468;2024-02-04T19:24:42;3.38;;;0.90;;